createdAt,value
2019-05-13T00:00:34.036Z,103551.64
2019-05-13T00:03:37.749Z,103544.77
2019-05-13T00:06:51.335Z,103544.17
2019-05-13T00:09:47.113Z,103543.62
2019-05-13T00:12:53.790Z,103542.22
2019-05-13T00:15:56.605Z,103550.02
2019-05-13T00:19:00.518Z,103555.08
2019-05-13T00:22:04.490Z,103538.42
2019-05-13T00:25:08.567Z,103545.77
2019-05-13T00:28:14.529Z,103537.07
2019-05-13T00:31:17.932Z,103534.63
2019-05-13T00:34:21.766Z,103536.53
2019-05-13T00:37:25.601Z,103538.17
2019-05-13T00:40:29.501Z,103539.98
2019-05-13T00:43:33.938Z,103543.75
2019-05-13T00:46:38.090Z,103546.81
2019-05-13T00:49:43.736Z,103544.45
2019-05-13T00:52:48.633Z,103544.92
2019-05-13T00:55:53.570Z,103549.64
2019-05-13T00:58:57.768Z,103552.75
2019-05-13T01:02:03.559Z,103545.71
2019-05-13T01:05:07.524Z,103549.67
2019-05-13T01:08:11.362Z,103547.69
2019-05-13T01:11:15.292Z,103554.12
2019-05-13T01:14:19.184Z,103545.05
2019-05-13T01:17:23.659Z,103540.67
2019-05-13T01:20:27.612Z,103550.03
2019-05-13T01:23:31.516Z,103555.69
2019-05-13T01:26:35.416Z,103556.45
2019-05-13T01:29:39.287Z,103558.87
2019-05-13T01:32:44.867Z,103553.91
2019-05-13T01:35:48.977Z,103561.80
2019-05-13T01:38:54.061Z,103566.16
2019-05-13T01:41:58.127Z,103568.64
2019-05-13T01:45:04.487Z,103572.48
2019-05-13T01:48:08.212Z,103565.56
2019-05-13T01:51:13.685Z,103574.15
2019-05-13T01:54:17.809Z,103561.55
2019-05-13T01:57:23.814Z,103577.38
2019-05-13T02:00:27.418Z,103575.28
2019-05-13T02:03:33.654Z,103580.81
2019-05-13T02:06:36.964Z,103581.19
2019-05-13T02:09:40.851Z,103583.38
2019-05-13T02:12:44.990Z,103585.55
2019-05-13T02:15:48.827Z,103590.34
2019-05-13T02:18:53.661Z,103589.04
2019-05-13T02:21:57.773Z,103589.11
2019-05-13T02:25:04.146Z,103595.52
2019-05-13T02:28:09.894Z,103588.66
2019-05-13T02:31:18.840Z,103600.02
2019-05-13T02:34:18.487Z,103594.07
2019-05-13T02:37:23.325Z,103588.56
2019-05-13T02:40:27.437Z,103587.62
2019-05-13T02:43:33.331Z,103593.33
2019-05-13T02:46:37.086Z,103597.33
2019-05-13T02:49:42.991Z,103603.88
2019-05-13T02:52:46.625Z,103599.59
2019-05-13T02:55:52.456Z,103599.87
2019-05-13T02:58:56.135Z,103605.94
2019-05-13T03:02:03.263Z,103605.95
2019-05-13T03:05:05.831Z,103607.63
2019-05-13T03:08:12.824Z,103614.30
2019-05-13T03:11:15.443Z,103613.09
2019-05-13T03:14:19.239Z,103613.67
2019-05-13T03:17:28.501Z,103618.77
2019-05-13T03:20:33.474Z,103619.00
2019-05-13T03:23:37.432Z,103617.53
2019-05-13T03:26:42.774Z,103615.63
2019-05-13T03:29:46.797Z,103619.14
2019-05-13T03:32:59.013Z,103617.56
2019-05-13T03:35:56.804Z,103623.52
2019-05-13T03:39:07.106Z,103619.05
2019-05-13T03:42:06.742Z,103626.59
2019-05-13T03:45:12.969Z,103622.59
2019-05-13T03:48:19.362Z,103624.07
2019-05-13T03:51:23.764Z,103626.37
2019-05-13T03:54:27.813Z,103624.95
2019-05-13T03:57:33.751Z,103622.59
2019-05-13T04:00:37.305Z,103632.49
2019-05-13T04:03:43.996Z,103631.19
2019-05-13T04:06:46.894Z,103636.16
2019-05-13T04:09:52.453Z,103637.41
2019-05-13T04:12:56.679Z,103637.30
2019-05-13T04:16:03.969Z,103635.11
2019-05-13T04:19:06.691Z,103640.21
2019-05-13T04:22:12.941Z,103648.80
2019-05-13T04:25:16.436Z,103643.54
2019-05-13T04:28:22.208Z,103645.17
2019-05-13T04:31:26.199Z,103650.73
2019-05-13T04:34:33.442Z,103651.45
2019-05-13T04:37:35.781Z,103656.38
2019-05-13T04:40:42.461Z,103658.30
2019-05-13T04:43:45.328Z,103657.41
2019-05-13T04:46:52.093Z,103655.24
2019-05-13T04:49:55.111Z,103655.24
2019-05-13T04:52:59.107Z,103659.73
2019-05-13T04:56:03.581Z,103651.23
2019-05-13T04:59:07.765Z,103649.30
2019-05-13T05:02:40.076Z,103650.84
2019-05-13T05:06:16.451Z,103655.16
2019-05-13T05:10:16.912Z,103653.52
2019-05-13T05:13:42.823Z,103651.64
2019-05-13T05:17:17.342Z,103659.81
2019-05-13T05:20:35.072Z,103660.54
2019-05-13T05:24:04.280Z,103657.78
2019-05-13T05:27:36.938Z,103654.13
2019-05-13T05:31:15.691Z,103664.18
2019-05-13T05:35:12.702Z,103677.91
2019-05-13T05:38:31.678Z,103672.52
2019-05-13T05:41:35.643Z,103673.86
2019-05-13T05:44:42.239Z,103676.08
2019-05-13T05:47:46.738Z,103673.84
2019-05-13T05:50:52.506Z,103678.64
2019-05-13T05:53:58.760Z,103684.33
2019-05-13T05:57:04.812Z,103679.70
2019-05-13T06:00:11.503Z,103677.78
2019-05-13T06:03:15.052Z,103672.73
2019-05-13T06:06:22.762Z,103670.42
2019-05-13T06:09:26.919Z,103673.55
2019-05-13T06:12:31.529Z,103678.77
2019-05-13T06:15:35.564Z,103684.72
2019-05-13T06:18:41.512Z,103681.60
2019-05-13T06:21:45.839Z,103681.24
2019-05-13T06:24:52.011Z,103684.18
2019-05-13T06:27:55.421Z,103684.98
2019-05-13T06:31:02.431Z,103692.73
2019-05-13T06:34:05.553Z,103701.45
2019-05-13T06:37:11.425Z,103696.89
2019-05-13T06:40:15.431Z,103696.73
2019-05-13T06:43:21.147Z,103697.06
2019-05-13T06:46:25.181Z,103703.78
2019-05-13T06:49:29.082Z,103701.99
2019-05-13T06:52:32.994Z,103701.01
2019-05-13T06:55:36.889Z,103705.73
2019-05-13T06:58:41.492Z,103704.84
2019-05-13T07:01:45.691Z,103713.58
2019-05-13T07:04:51.648Z,103711.75
2019-05-13T07:07:55.760Z,103716.05
2019-05-13T07:11:16.659Z,103719.55
2019-05-13T07:14:05.463Z,103720.14
2019-05-13T07:17:09.330Z,103721.48
2019-05-13T07:20:13.982Z,103729.55
2019-05-13T07:23:18.056Z,103728.09
2019-05-13T07:26:22.172Z,103727.02
2019-05-13T07:29:26.037Z,103718.17
2019-05-13T07:32:31.463Z,103722.21
2019-05-13T07:35:38.018Z,103718.81
2019-05-13T07:38:42.110Z,103724.29
2019-05-13T07:41:45.985Z,103727.45
2019-05-13T07:44:52.148Z,103722.75
2019-05-13T07:47:55.420Z,103722.11
2019-05-13T07:51:00.635Z,103718.30
2019-05-13T07:54:05.096Z,103720.34
2019-05-13T07:57:08.919Z,103728.68
2019-05-13T08:00:12.984Z,103722.98
2019-05-13T08:03:16.809Z,103723.31
2019-05-13T08:06:21.951Z,103726.19
2019-05-13T08:09:26.171Z,103722.75
2019-05-13T08:12:31.940Z,103718.56
2019-05-13T08:15:35.617Z,103715.73
2019-05-13T08:18:43.680Z,103707.13
2019-05-13T08:21:45.215Z,103710.87
2019-05-13T08:24:51.938Z,103699.38
2019-05-13T08:27:54.600Z,103711.46
2019-05-13T08:30:58.471Z,103702.58
2019-05-13T08:34:02.741Z,103704.47
2019-05-13T08:37:06.686Z,103707.48
2019-05-13T08:40:12.075Z,103705.33
2019-05-13T08:43:16.301Z,103692.34
2019-05-13T08:46:21.865Z,103706.97
2019-05-13T08:49:25.884Z,103705.33
2019-05-13T08:52:31.327Z,103714.95
2019-05-13T08:55:35.423Z,103706.84
2019-05-13T08:58:41.286Z,103699.59
2019-05-13T09:01:45.095Z,103690.81
2019-05-13T09:04:51.439Z,103698.57
2019-05-13T09:07:55.930Z,103692.66
2019-05-13T09:11:01.591Z,103693.66
2019-05-13T09:14:05.904Z,103690.53
2019-05-13T09:17:11.891Z,103691.38
2019-05-13T09:20:15.623Z,103687.91
2019-05-13T09:23:22.014Z,103688.91
2019-05-13T09:26:25.187Z,103684.00
2019-05-13T09:29:31.896Z,103679.93
2019-05-13T09:32:34.814Z,103680.02
2019-05-13T09:35:38.668Z,103677.47
2019-05-13T09:38:42.567Z,103678.78
2019-05-13T09:41:46.368Z,103677.44
2019-05-13T09:44:52.593Z,103679.78
2019-05-13T09:47:56.120Z,103678.39
2019-05-13T09:51:02.169Z,103676.61
2019-05-13T09:54:05.892Z,103677.10
2019-05-13T09:57:11.916Z,103679.67
2019-05-13T10:00:15.519Z,103677.03
2019-05-13T10:03:25.068Z,103686.86
2019-05-13T10:06:25.224Z,103686.02
2019-05-13T10:09:29.055Z,103689.62
2019-05-13T10:12:32.891Z,103692.67
2019-05-13T10:15:37.011Z,103679.12
2019-05-13T10:18:42.224Z,103681.02
2019-05-13T10:21:46.604Z,103681.56
2019-05-13T10:24:51.375Z,103682.00
2019-05-13T10:27:55.767Z,103684.19
2019-05-13T10:30:59.658Z,103676.66
2019-05-13T10:34:03.634Z,103682.05
2019-05-13T10:37:07.649Z,103670.02
2019-05-13T10:40:13.195Z,103674.91
2019-05-13T10:43:29.394Z,103677.60
2019-05-13T10:46:22.902Z,103680.22
2019-05-13T10:49:26.706Z,103681.16
2019-05-13T10:52:32.256Z,103675.79
2019-05-13T10:55:36.270Z,103678.48
2019-05-13T10:58:42.616Z,103682.00
2019-05-13T11:01:45.941Z,103681.16
2019-05-13T11:04:51.928Z,103668.66
2019-05-13T11:07:55.526Z,103669.58
2019-05-13T11:11:01.983Z,103677.99
2019-05-13T11:14:10.910Z,103677.50
2019-05-13T11:17:13.152Z,103671.31
2019-05-13T11:20:16.457Z,103666.46
2019-05-13T11:23:23.204Z,103669.56
2019-05-13T11:26:26.346Z,103662.88
2019-05-13T11:29:32.361Z,103665.97
2019-05-13T11:32:35.856Z,103660.56
2019-05-13T11:35:41.465Z,103654.85
2019-05-13T11:38:45.610Z,103655.34
2019-05-13T11:41:49.538Z,103653.08
2019-05-13T11:44:53.399Z,103650.86
2019-05-13T11:47:57.329Z,103652.64
2019-05-13T11:51:04.007Z,103652.64
2019-05-13T11:54:06.877Z,103650.87
2019-05-13T11:57:12.447Z,103644.16
2019-05-13T12:00:21.799Z,103639.72
2019-05-13T12:03:25.858Z,103640.61
2019-05-13T12:06:30.077Z,103641.95
2019-05-13T12:09:35.767Z,103643.70
2019-05-13T12:12:43.363Z,103642.80
2019-05-13T12:15:49.609Z,103653.55
2019-05-13T12:18:52.602Z,103649.09
2019-05-13T12:21:56.511Z,103631.69
2019-05-13T12:25:02.058Z,103637.02
2019-05-13T12:28:06.121Z,103628.58
2019-05-13T12:31:12.163Z,103637.50
2019-05-13T12:34:15.720Z,103627.67
2019-05-13T12:37:21.984Z,103621.44
2019-05-13T12:40:25.334Z,103616.53
2019-05-13T12:43:31.852Z,103627.22
2019-05-13T12:46:34.885Z,103627.69
2019-05-13T12:49:38.808Z,103630.79
2019-05-13T12:52:43.763Z,103615.63
2019-05-13T12:55:52.771Z,103631.23
2019-05-13T12:58:53.801Z,103628.14
2019-05-13T13:01:57.741Z,103618.30
2019-05-13T13:05:14.078Z,103621.00
2019-05-13T13:08:28.869Z,103613.41
2019-05-13T13:11:12.942Z,103606.27
2019-05-13T13:14:17.122Z,103609.80
2019-05-13T13:17:24.090Z,103609.84
2019-05-13T13:20:27.865Z,103612.95
2019-05-13T13:23:34.182Z,103599.12
2019-05-13T13:26:37.478Z,103623.22
2019-05-13T13:29:43.303Z,103604.50
2019-05-13T13:32:47.167Z,103600.89
2019-05-13T13:35:58.924Z,103594.22
2019-05-13T13:38:56.732Z,103589.75
2019-05-13T13:42:05.440Z,103595.56
2019-05-13T13:45:06.541Z,103590.19
2019-05-13T13:48:13.379Z,103583.03
2019-05-13T13:51:15.997Z,103584.75
2019-05-13T13:54:22.363Z,103582.98
2019-05-13T13:57:26.057Z,103581.64
2019-05-13T14:00:40.746Z,103577.94
2019-05-13T14:03:35.662Z,103580.14
2019-05-13T14:09:45.376Z,103578.39
2019-05-13T14:12:49.206Z,103586.52
2019-05-13T14:15:53.121Z,103573.06
2019-05-13T14:18:56.943Z,103577.69
2019-05-13T14:22:01.690Z,103587.54
2019-05-13T14:25:06.443Z,103594.67
2019-05-13T14:28:10.334Z,103580.40
2019-05-13T14:31:14.243Z,103582.20
2019-05-13T14:34:18.093Z,103598.23
2019-05-13T14:37:22.480Z,103586.16
2019-05-13T14:40:26.451Z,103592.45
2019-05-13T14:43:31.798Z,103593.75
2019-05-13T14:46:47.212Z,103589.73
2019-05-13T14:49:42.327Z,103578.60
2019-05-13T14:52:46.566Z,103582.00
2019-05-13T14:55:51.755Z,103581.16
2019-05-13T14:58:55.757Z,103581.56
2019-05-13T15:02:01.335Z,103585.94
2019-05-13T15:05:06.512Z,103579.69
2019-05-13T15:08:10.403Z,103572.20
2019-05-13T15:11:14.483Z,103564.81
2019-05-13T15:14:18.372Z,103564.78
2019-05-13T15:17:22.281Z,103566.14
2019-05-13T15:20:26.427Z,103557.67
2019-05-13T15:23:31.721Z,103565.70
2019-05-13T15:26:35.838Z,103557.12
2019-05-13T15:29:41.650Z,103562.02
2019-05-13T15:32:45.279Z,103559.86
2019-05-13T15:35:51.780Z,103555.73
2019-05-13T15:38:54.921Z,103566.02
2019-05-13T15:42:01.707Z,103557.23
2019-05-13T15:45:04.877Z,103555.01
2019-05-13T15:48:08.701Z,103558.98
2019-05-13T15:51:12.697Z,103561.50
2019-05-13T15:54:16.612Z,103573.64
2019-05-13T15:57:21.328Z,103564.55
2019-05-13T16:00:25.574Z,103564.36
2019-05-13T16:03:29.478Z,103563.93
2019-05-13T16:06:33.333Z,103558.13
2019-05-13T16:09:37.181Z,103571.89
2019-05-13T16:12:43.632Z,103568.71
2019-05-13T16:15:47.869Z,103563.75
2019-05-13T16:18:52.816Z,103562.42
2019-05-13T16:21:56.630Z,103559.79
2019-05-13T16:25:01.509Z,103551.73
2019-05-13T16:28:06.085Z,103556.16
2019-05-13T16:31:12.040Z,103554.70
2019-05-13T16:34:15.655Z,103549.38
2019-05-13T16:37:21.799Z,103558.81
2019-05-13T16:40:25.294Z,103555.23
2019-05-13T16:43:29.154Z,103557.44
2019-05-13T16:46:33.068Z,103551.66
2019-05-13T16:49:36.982Z,103553.38
2019-05-13T16:52:41.780Z,103555.94
2019-05-13T16:55:46.153Z,103555.05
2019-05-13T16:58:52.132Z,103557.70
2019-05-13T17:01:55.912Z,103559.86
2019-05-13T17:05:01.377Z,103553.22
2019-05-13T17:08:05.427Z,103547.08
2019-05-13T17:11:11.710Z,103561.19
2019-05-13T17:14:15.313Z,103552.68
2019-05-13T17:17:19.222Z,103548.63
2019-05-13T17:20:23.188Z,103557.71
2019-05-13T17:23:27.227Z,103556.09
2019-05-13T17:26:32.685Z,103552.64
2019-05-13T17:29:36.819Z,103542.88
2019-05-13T17:32:40.744Z,103555.80
2019-05-13T17:35:44.719Z,103548.42
2019-05-13T17:38:48.561Z,103553.73
2019-05-13T17:41:52.367Z,103549.25
2019-05-13T17:44:56.189Z,103560.45
2019-05-13T17:48:01.128Z,103560.66
2019-05-13T17:51:05.018Z,103559.88
2019-05-13T17:54:08.859Z,103565.02
2019-05-13T17:57:12.670Z,103562.25
2019-05-13T18:00:16.648Z,103557.89
2019-05-13T18:03:20.540Z,103561.42
2019-05-13T18:06:24.456Z,103565.53
2019-05-13T18:09:28.351Z,103569.69
2019-05-13T18:12:32.252Z,103562.78
2019-05-13T18:15:36.077Z,103567.59
2019-05-13T18:18:46.327Z,103558.25
2019-05-13T18:21:45.585Z,103564.66
2019-05-13T18:24:51.750Z,103565.89
2019-05-13T18:27:55.145Z,103567.38
2019-05-13T18:30:58.956Z,103564.33
2019-05-13T18:34:02.856Z,103568.25
2019-05-13T18:37:06.669Z,103573.32
2019-05-13T18:40:11.632Z,103574.27
2019-05-13T18:43:15.703Z,103576.67
2019-05-13T18:46:21.732Z,103582.48
2019-05-13T18:49:25.233Z,103587.02
2019-05-13T18:52:31.177Z,103576.39
2019-05-13T18:55:34.747Z,103584.66
2019-05-13T18:58:38.634Z,103590.30
2019-05-13T19:01:42.538Z,103584.48
2019-05-13T19:04:46.415Z,103597.52
2019-05-13T19:07:51.282Z,103603.88
2019-05-13T19:10:55.365Z,103606.95
2019-05-13T19:13:59.284Z,103610.64
2019-05-13T19:17:03.241Z,103609.00
2019-05-13T19:20:07.519Z,103613.25
2019-05-13T19:23:11.917Z,103615.44
2019-05-13T19:26:15.853Z,103625.25
2019-05-13T19:29:21.841Z,103621.05
2019-05-13T19:32:25.295Z,103622.08
2019-05-13T19:35:29.203Z,103618.45
2019-05-13T19:38:33.117Z,103618.86
2019-05-13T19:41:36.993Z,103619.61
2019-05-13T19:44:42.034Z,103622.56
2019-05-13T19:47:46.095Z,103620.55
2019-05-13T19:50:52.048Z,103617.09
2019-05-13T19:53:55.528Z,103611.91
2019-05-13T19:57:01.423Z,103617.66
2019-05-13T20:00:09.764Z,103613.97
2019-05-13T20:03:11.855Z,103612.19
2019-05-13T20:06:15.854Z,103623.48
2019-05-13T20:09:21.560Z,103618.69
2019-05-13T20:12:25.504Z,103611.02
2019-05-13T20:15:41.331Z,103611.81
2019-05-13T20:18:47.035Z,103618.52
2019-05-13T20:21:51.840Z,103617.77
2019-05-13T20:24:55.846Z,103621.23
2019-05-13T20:28:03.874Z,103614.99
2019-05-13T20:31:08.350Z,103618.95
2019-05-13T20:34:12.304Z,103617.32
2019-05-13T20:37:16.324Z,103612.42
2019-05-13T20:40:22.139Z,103623.81
2019-05-13T20:43:27.570Z,103619.73
2019-05-13T20:46:33.084Z,103623.42
2019-05-13T20:49:37.724Z,103623.09
2019-05-13T20:52:42.111Z,103629.66
2019-05-13T20:55:47.106Z,103625.28
2019-05-13T20:58:51.674Z,103622.15
2019-05-13T21:01:55.996Z,103618.72
2019-05-13T21:05:02.804Z,103629.44
2019-05-13T21:08:06.540Z,103631.28
2019-05-13T21:11:11.572Z,103633.67
2019-05-13T21:14:15.571Z,103633.52
2019-05-13T21:17:21.407Z,103627.65
2019-05-13T21:20:26.240Z,103627.00
2019-05-13T21:23:31.386Z,103628.03
2019-05-13T21:26:36.325Z,103629.41
2019-05-13T21:29:41.354Z,103628.97
2019-05-13T21:32:46.190Z,103634.23
2019-05-13T21:35:51.269Z,103634.42
2019-05-13T21:38:55.937Z,103631.70
2019-05-13T21:42:02.147Z,103635.08
2019-05-13T21:45:06.765Z,103627.45
2019-05-13T21:48:11.216Z,103625.89
2019-05-13T21:51:15.856Z,103629.24
2019-05-13T21:54:20.396Z,103627.39
2019-05-13T21:57:24.211Z,103625.59
2019-05-13T22:00:33.456Z,103623.53
2019-05-13T22:03:37.794Z,103632.91
2019-05-13T22:06:42.206Z,103625.53
2019-05-13T22:09:46.719Z,103627.23
2019-05-13T22:12:52.051Z,103625.83
2019-05-13T22:15:56.716Z,103630.67
2019-05-13T22:19:01.526Z,103634.14
2019-05-13T22:22:05.584Z,103631.11
2019-05-13T22:25:12.155Z,103638.03
2019-05-13T22:28:16.252Z,103642.41
2019-05-13T22:31:22.055Z,103642.64
2019-05-13T22:34:25.614Z,103638.70
2019-05-13T22:37:31.326Z,103630.34
2019-05-13T22:40:35.299Z,103628.05
2019-05-13T22:43:52.321Z,103636.37
2019-05-13T22:46:44.724Z,103635.72
2019-05-13T22:49:48.543Z,103635.55
2019-05-13T22:52:52.440Z,103627.70
2019-05-13T22:55:56.322Z,103628.39
2019-05-13T22:59:02.114Z,103630.70
2019-05-13T23:02:05.846Z,103650.77
2019-05-13T23:05:11.283Z,103651.45
2019-05-13T23:08:15.314Z,103654.77
2019-05-13T23:11:19.127Z,103650.23
2019-05-13T23:14:23.006Z,103652.16
2019-05-13T23:17:26.856Z,103643.73
2019-05-13T23:20:31.772Z,103651.11
2019-05-13T23:23:35.948Z,103651.01
2019-05-13T23:26:42.031Z,103644.69
2019-05-13T23:29:47.173Z,103645.77
2019-05-13T23:32:51.808Z,103638.69
2019-05-13T23:35:55.916Z,103629.53
2019-05-13T23:39:01.075Z,103632.44
2019-05-13T23:42:05.036Z,103639.78
2019-05-13T23:45:11.283Z,103643.49
2019-05-13T23:48:14.574Z,103635.50
2019-05-13T23:51:18.471Z,103630.02
2019-05-13T23:54:22.312Z,103625.22
2019-05-13T23:57:26.271Z,103627.16
